Time;durP1;ratioP1;P1;durP2;ratioP2;P2;SDS_P1;SDS_P2;PMS_P1;PMS_P2;Temp;Humidity;BMP_temperature;BMP_pressure;BME280_temperature;BME280_humidity;BME280_pressure;Samples;Min_cycle;Max_cycle;Signal;HPM_P1;HPM_P2
2023/07/17 00:00:40;;;;;;;6.25;3.17;;;27.70;79.20;;;;;;5015898;28;20430;-69
2023/07/17 00:03:06;;;;;;;8.57;3.08;;;27.60;79.80;;;;;;5017395;28;20452;-68
2023/07/17 00:05:33;;;;;;;6.45;2.95;;;27.60;79.70;;;;;;5009626;28;20423;-68
2023/07/17 00:07:59;;;;;;;6.10;2.75;;;27.50;80.00;;;;;;5009448;28;20431;-68
2023/07/17 00:10:25;;;;;;;6.82;3.28;;;27.50;79.80;;;;;;4989144;28;20945;-68
2023/07/17 00:12:51;;;;;;;7.25;3.40;;;27.50;80.00;;;;;;5010706;28;20480;-68
2023/07/17 00:15:18;;;;;;;7.18;3.15;;;27.50;79.80;;;;;;5009907;28;21289;-68
2023/07/17 00:17:44;;;;;;;6.32;3.00;;;27.50;79.50;;;;;;5011000;28;20641;-68
2023/07/17 00:20:12;;;;;;;5.30;2.92;;;27.50;79.50;;;;;;5007694;28;20891;-68
2023/07/17 00:22:39;;;;;;;5.93;3.03;;;27.40;79.10;;;;;;5011579;28;20803;-68
2023/07/17 00:25:05;;;;;;;7.70;3.10;;;27.30;79.20;;;;;;5012448;28;20522;-68
2023/07/17 00:27:34;;;;;;;4.03;2.80;;;27.20;79.70;;;;;;5013638;28;21058;-68
2023/07/17 00:30:00;;;;;;;6.35;3.10;;;27.10;79.50;;;;;;4994696;28;21105;-68
2023/07/17 00:32:27;;;;;;;6.47;3.38;;;27.10;79.60;;;;;;5017391;28;20977;-68
2023/07/17 00:34:53;;;;;;;5.50;3.03;;;27.00;80.00;;;;;;5015775;28;20424;-68
2023/07/17 00:37:19;;;;;;;6.53;3.15;;;27.10;80.20;;;;;;5031808;28;20453;-68
2023/07/17 00:39:46;;;;;;;5.25;2.95;;;27.00;80.20;;;;;;5012041;28;20473;-68
2023/07/17 00:42:12;;;;;;;6.40;3.08;;;27.00;80.10;;;;;;5011145;28;20433;-68
2023/07/17 00:44:38;;;;;;;9.52;3.10;;;27.00;80.10;;;;;;5016250;28;20426;-68
2023/07/17 00:47:06;;;;;;;5.50;3.10;;;27.00;80.00;;;;;;5012083;28;21080;-68
2023/07/17 00:49:33;;;;;;;5.87;3.17;;;26.90;80.10;;;;;;5008998;28;20517;-68
2023/07/17 00:52:01;;;;;;;7.88;3.10;;;26.90;80.30;;;;;;5024620;28;20416;-68
2023/07/17 00:54:29;;;;;;;7.03;3.07;;;26.80;80.30;;;;;;4996550;28;20415;-68
2023/07/17 00:57:03;;;;;;;6.32;3.20;;;26.90;80.50;;;;;;5013740;28;20866;-68
2023/07/17 00:59:31;;;;;;;6.53;3.08;;;26.90;80.30;;;;;;5016042;28;20954;-68
2023/07/17 01:01:59;;;;;;;5.63;3.05;;;26.90;80.60;;;;;;5011573;28;20864;-68
2023/07/17 01:04:25;;;;;;;11.10;3.40;;;26.90;80.70;;;;;;5013046;28;20432;-68
2023/07/17 01:06:51;;;;;;;5.30;2.80;;;26.90;80.70;;;;;;5015017;28;20419;-68
2023/07/17 01:09:18;;;;;;;6.75;3.20;;;26.80;81.00;;;;;;5013104;28;20414;-68
2023/07/17 01:11:44;;;;;;;7.40;3.28;;;26.80;81.20;;;;;;5015422;28;20417;-68
2023/07/17 01:14:20;;;;;;;5.07;3.05;;;26.80;81.60;;;;;;5010072;28;20821;-68
2023/07/17 01:16:48;;;;;;;7.30;3.10;;;26.90;81.70;;;;;;5013208;28;20813;-68
2023/07/17 01:19:15;;;;;;;6.63;3.33;;;27.00;81.70;;;;;;5014488;28;20414;-68
2023/07/17 01:21:53;;;;;;;6.43;3.28;;;26.90;82.00;;;;;;5015635;28;20817;-68
2023/07/17 01:24:20;;;;;;;5.65;2.83;;;27.10;82.00;;;;;;5015881;28;20430;-68
2023/07/17 01:26:47;;;;;;;6.80;3.13;;;27.30;81.60;;;;;;5014873;28;20469;-68
2023/07/17 01:29:13;;;;;;;5.72;3.00;;;27.40;81.30;;;;;;5013093;28;20422;-68
2023/07/17 01:31:41;;;;;;;4.78;2.80;;;27.40;81.60;;;;;;5011378;28;22023;-68
2023/07/17 01:34:08;;;;;;;7.22;3.28;;;27.60;81.40;;;;;;5014638;28;20415;-69
2023/07/17 01:36:34;;;;;;;7.22;2.92;;;27.60;81.40;;;;;;5017622;28;20425;-68
2023/07/17 01:39:00;;;;;;;7.97;3.17;;;27.30;81.50;;;;;;5012170;28;20410;-68
2023/07/17 01:41:26;;;;;;;6.47;3.20;;;27.10;81.80;;;;;;5013247;28;20437;-68
2023/07/17 01:43:53;;;;;;;8.73;3.33;;;27.00;82.30;;;;;;5019567;28;20433;-68
2023/07/17 01:46:19;;;;;;;7.40;2.78;;;27.00;82.60;;;;;;5014737;28;20552;-68
2023/07/17 01:48:47;;;;;;;6.63;3.10;;;27.00;82.30;;;;;;5020201;28;20418;-68
2023/07/17 01:51:13;;;;;;;6.43;3.30;;;27.00;82.40;;;;;;5016717;28;20480;-68
2023/07/17 01:53:39;;;;;;;6.78;3.40;;;26.90;82.60;;;;;;5019099;28;21108;-68
2023/07/17 01:56:06;;;;;;;7.50;3.40;;;26.90;82.70;;;;;;5018353;28;20433;-68
2023/07/17 01:58:32;;;;;;;7.28;3.00;;;26.80;82.60;;;;;;4999420;28;20538;-68
2023/07/17 02:00:58;;;;;;;5.00;2.90;;;26.80;82.70;;;;;;5018148;28;20434;-68
2023/07/17 02:03:24;;;;;;;6.15;3.38;;;26.80;82.80;;;;;;5019220;28;20433;-68
2023/07/17 02:05:51;;;;;;;7.78;3.13;;;26.80;82.80;;;;;;5015777;28;20873;-68
2023/07/17 02:08:17;;;;;;;8.30;3.00;;;26.80;82.60;;;;;;5017561;28;20455;-68
2023/07/17 02:10:47;;;;;;;7.43;2.97;;;26.90;82.40;;;;;;5019211;28;20496;-68
2023/07/17 02:13:14;;;;;;;5.95;3.10;;;27.00;82.20;;;;;;5017842;28;20766;-68
2023/07/17 02:15:40;;;;;;;5.75;3.38;;;27.00;82.00;;;;;;5014775;28;20526;-68
2023/07/17 02:18:07;;;;;;;7.32;3.40;;;27.10;81.90;;;;;;5017337;28;20818;-68
2023/07/17 02:20:34;;;;;;;8.60;3.47;;;27.10;81.80;;;;;;5019340;28;20851;-68
2023/07/17 02:23:01;;;;;;;6.18;3.00;;;27.10;81.70;;;;;;5016948;28;20466;-68
2023/07/17 02:25:28;;;;;;;7.80;3.35;;;26.90;81.90;;;;;;5019995;28;20501;-68
2023/07/17 02:27:54;;;;;;;3.90;2.95;;;26.90;82.20;;;;;;5021031;28;20536;-68
2023/07/17 02:30:21;;;;;;;6.05;3.20;;;26.90;82.00;;;;;;5019039;28;20785;-68
2023/07/17 02:32:50;;;;;;;5.55;3.00;;;26.80;82.00;;;;;;5016330;28;20431;-68
2023/07/17 02:35:17;;;;;;;7.30;3.00;;;26.70;82.40;;;;;;5015482;28;20788;-69
2023/07/17 02:37:43;;;;;;;8.02;3.20;;;26.70;82.40;;;;;;5012681;28;21230;-68
2023/07/17 02:40:10;;;;;;;5.85;3.10;;;26.70;82.30;;;;;;5014124;28;20423;-68
2023/07/17 02:42:37;;;;;;;5.00;3.00;;;26.70;82.00;;;;;;5015896;28;20414;-68
2023/07/17 02:45:06;;;;;;;5.85;2.90;;;26.70;81.90;;;;;;4990857;28;20423;-68
2023/07/17 02:47:33;;;;;;;11.23;3.30;;;26.70;82.00;;;;;;5013139;28;20419;-68
2023/07/17 02:49:59;;;;;;;7.45;2.92;;;26.80;82.00;;;;;;5009887;28;20421;-68
2023/07/17 02:52:25;;;;;;;7.93;2.90;;;26.80;81.90;;;;;;4994357;28;20581;-68
2023/07/17 02:54:52;;;;;;;5.50;2.77;;;26.80;81.90;;;;;;5013468;28;20504;-68
2023/07/17 02:57:18;;;;;;;6.72;2.88;;;26.80;81.70;;;;;;5013954;28;20493;-68
2023/07/17 02:59:44;;;;;;;5.57;3.20;;;26.80;81.40;;;;;;5017312;28;20468;-68
2023/07/17 03:02:10;;;;;;;8.00;3.17;;;26.80;81.60;;;;;;5009786;28;20440;-68
2023/07/17 03:04:36;;;;;;;8.32;2.90;;;26.80;81.70;;;;;;5008455;28;20423;-68
2023/07/17 03:07:03;;;;;;;6.35;3.10;;;26.90;81.60;;;;;;5014805;28;22566;-68
2023/07/17 03:09:29;;;;;;;5.43;3.00;;;26.80;81.40;;;;;;4998526;28;20453;-68
2023/07/17 03:11:56;;;;;;;5.13;2.90;;;26.70;81.50;;;;;;5013195;28;20420;-68
2023/07/17 03:14:22;;;;;;;8.23;3.00;;;26.60;81.90;;;;;;5018001;28;20427;-68
2023/07/17 03:16:48;;;;;;;7.20;2.92;;;26.60;81.90;;;;;;5030208;28;20423;-68
2023/07/17 03:19:14;;;;;;;8.13;3.03;;;26.50;82.30;;;;;;5000597;28;20929;-68
2023/07/17 03:21:40;;;;;;;7.57;3.40;;;26.50;82.20;;;;;;5013173;28;20975;-68
2023/07/17 03:24:07;;;;;;;5.60;2.65;;;26.50;82.40;;;;;;5016372;28;20414;-68
2023/07/17 03:26:33;;;;;;;5.50;3.00;;;26.60;82.70;;;;;;5013712;28;21082;-68
2023/07/17 03:28:59;;;;;;;8.88;3.10;;;26.60;82.70;;;;;;5013659;28;20426;-68
2023/07/17 03:31:25;;;;;;;9.07;3.08;;;26.70;82.80;;;;;;5015172;28;20426;-68
2023/07/17 03:33:52;;;;;;;8.40;3.20;;;26.70;83.10;;;;;;5018950;28;20414;-68
2023/07/17 03:36:18;;;;;;;7.03;3.00;;;26.60;83.30;;;;;;5032262;28;20415;-68
2023/07/17 03:38:44;;;;;;;6.97;3.38;;;26.70;83.60;;;;;;5017789;28;20466;-68
2023/07/17 03:41:10;;;;;;;10.25;3.30;;;26.70;83.90;;;;;;5026134;28;20428;-68
2023/07/17 03:43:36;;;;;;;6.30;2.90;;;26.80;84.10;;;;;;5015156;28;20441;-68
2023/07/17 03:46:05;;;;;;;8.45;3.17;;;26.80;84.10;;;;;;5032540;28;20530;-68
2023/07/17 03:48:32;;;;;;;6.55;3.00;;;26.70;84.50;;;;;;5015243;28;20418;-68
2023/07/17 03:50:58;;;;;;;5.65;3.17;;;26.70;85.10;;;;;;5016116;28;20419;-68
2023/07/17 03:53:24;;;;;;;6.85;3.25;;;26.70;84.60;;;;;;5028004;28;20985;-68
2023/07/17 03:55:50;;;;;;;10.80;3.35;;;26.60;84.90;;;;;;5021959;28;20410;-68
2023/07/17 03:58:17;;;;;;;13.35;3.70;;;26.60;85.20;;;;;;5014483;28;20406;-68
2023/07/17 04:00:43;;;;;;;17.33;4.18;;;26.60;85.60;;;;;;5014900;28;20488;-68
2023/07/17 04:03:09;;;;;;;16.15;3.70;;;26.60;86.00;;;;;;5015767;28;20418;-68
2023/07/17 04:05:35;;;;;;;15.00;3.47;;;26.70;86.10;;;;;;5016868;28;20466;-68
2023/07/17 04:08:02;;;;;;;8.60;3.70;;;26.70;86.40;;;;;;5031137;28;20437;-68
2023/07/17 04:10:29;;;;;;;8.85;3.50;;;26.70;86.40;;;;;;5014293;28;20434;-68
2023/07/17 04:12:55;;;;;;;8.60;3.28;;;26.70;86.50;;;;;;5007908;28;20426;-68
2023/07/17 04:15:22;;;;;;;6.38;3.38;;;26.80;86.50;;;;;;5016033;28;20454;-68
2023/07/17 04:17:48;;;;;;;5.43;3.15;;;26.80;86.90;;;;;;5013600;28;20438;-68
2023/07/17 04:20:16;;;;;;;6.80;3.28;;;26.80;87.00;;;;;;5012222;28;20419;-68
2023/07/17 04:22:42;;;;;;;8.43;3.25;;;26.80;86.90;;;;;;5016837;28;20419;-68
2023/07/17 04:25:09;;;;;;;10.23;3.15;;;27.00;87.20;;;;;;5012747;28;21088;-68
2023/07/17 04:27:35;;;;;;;13.98;3.58;;;27.00;86.90;;;;;;5009488;28;20416;-68
2023/07/17 04:30:02;;;;;;;10.35;3.42;;;27.20;88.00;;;;;;4995174;28;20486;-68
2023/07/17 04:32:28;;;;;;;7.50;3.75;;;27.40;88.10;;;;;;5028363;28;20469;-68
2023/07/17 04:34:54;;;;;;;5.40;3.15;;;27.50;87.80;;;;;;5015208;28;20610;-68
2023/07/17 04:37:20;;;;;;;9.00;3.20;;;27.50;87.70;;;;;;5026461;28;20414;-69
2023/07/17 04:39:46;;;;;;;7.15;3.60;;;27.60;88.10;;;;;;5011313;28;20458;-68
2023/07/17 04:42:14;;;;;;;7.20;3.30;;;27.60;88.00;;;;;;5015200;28;20486;-68
2023/07/17 04:44:40;;;;;;;8.68;3.33;;;27.60;88.20;;;;;;5012829;28;20425;-67
2023/07/17 04:47:06;;;;;;;6.32;3.15;;;27.60;88.40;;;;;;5016035;28;20811;-67
2023/07/17 04:49:33;;;;;;;7.68;3.38;;;27.60;88.60;;;;;;5011678;28;20520;-68
2023/07/17 04:51:59;;;;;;;7.20;3.38;;;27.60;88.60;;;;;;5010446;28;20422;-68
2023/07/17 04:54:25;;;;;;;8.18;3.90;;;27.70;89.10;;;;;;5010377;28;20521;-68
2023/07/17 04:56:51;;;;;;;9.63;3.63;;;27.80;89.60;;;;;;5011785;28;20438;-68
2023/07/17 04:59:19;;;;;;;8.35;3.42;;;27.80;89.30;;;;;;5012742;28;20514;-68
2023/07/17 05:01:45;;;;;;;6.30;3.60;;;27.90;88.60;;;;;;5011941;28;20422;-68
2023/07/17 05:04:12;;;;;;;7.50;3.50;;;27.80;86.80;;;;;;5013726;28;20434;-68
2023/07/17 05:06:38;;;;;;;6.57;3.30;;;27.80;87.20;;;;;;5016173;28;20422;-68
2023/07/17 05:09:05;;;;;;;6.43;3.20;;;27.90;87.10;;;;;;5016618;28;20487;-68
2023/07/17 05:11:32;;;;;;;6.05;3.40;;;28.00;88.10;;;;;;5014818;28;20423;-68
2023/07/17 05:13:58;;;;;;;6.77;3.30;;;27.90;87.30;;;;;;5015964;28;20972;-68
2023/07/17 05:16:24;;;;;;;8.27;3.20;;;27.90;86.40;;;;;;5013312;28;20878;-68
2023/07/17 05:18:51;;;;;;;5.85;3.38;;;27.90;86.70;;;;;;5018756;28;20516;-68
2023/07/17 05:21:17;;;;;;;9.02;3.33;;;28.10;86.30;;;;;;5023082;28;20460;-68
2023/07/17 05:23:43;;;;;;;7.15;3.30;;;28.30;86.60;;;;;;5004698;28;21059;-68
2023/07/17 05:26:09;;;;;;;6.95;3.20;;;28.60;85.70;;;;;;5020305;28;20433;-68
2023/07/17 05:28:37;;;;;;;7.70;3.70;;;28.60;87.10;;;;;;5020213;28;20418;-68
2023/07/17 05:31:04;;;;;;;6.13;3.30;;;28.50;86.50;;;;;;5015424;28;20411;-68
2023/07/17 05:33:30;;;;;;;6.38;3.22;;;28.50;86.30;;;;;;5002322;28;20969;-68
2023/07/17 05:35:58;;;;;;;8.63;3.13;;;28.50;85.60;;;;;;5021762;28;20418;-68
2023/07/17 05:38:24;;;;;;;10.45;2.97;;;28.50;87.00;;;;;;5019525;28;20415;-68
2023/07/17 05:40:59;;;;;;;5.57;3.38;;;28.60;86.10;;;;;;5015689;28;20446;-69
2023/07/17 05:43:25;;;;;;;6.38;3.40;;;28.60;86.40;;;;;;5030361;28;20473;-68
2023/07/17 05:45:52;;;;;;;6.37;3.10;;;28.70;86.60;;;;;;4999477;28;21179;-68
2023/07/17 05:48:19;;;;;;;6.38;3.10;;;28.70;85.20;;;;;;5018426;28;20411;-68
2023/07/17 05:50:45;;;;;;;4.90;2.95;;;28.80;84.70;;;;;;5018393;28;20569;-68
2023/07/17 05:53:11;;;;;;;7.97;3.10;;;28.70;85.20;;;;;;5020067;28;21218;-68
2023/07/17 05:55:37;;;;;;;7.55;3.38;;;28.90;82.60;;;;;;5016085;28;20422;-68
2023/07/17 05:58:04;;;;;;;9.32;3.40;;;29.00;83.60;;;;;;5019709;28;20790;-68
2023/07/17 06:00:30;;;;;;;13.48;3.42;;;29.20;84.50;;;;;;5016509;28;20520;-68
2023/07/17 06:02:56;;;;;;;8.40;3.50;;;29.30;84.60;;;;;;5016558;28;20475;-68
2023/07/17 06:05:22;;;;;;;8.70;3.20;;;29.30;84.70;;;;;;5017265;28;21031;-68
2023/07/17 06:07:48;;;;;;;7.40;3.33;;;29.40;84.60;;;;;;5016834;28;20952;-69
2023/07/17 06:10:15;;;;;;;11.60;3.17;;;29.60;84.80;;;;;;5018603;28;20419;-68
2023/07/17 06:12:42;;;;;;;7.47;3.10;;;29.60;84.70;;;;;;5012442;28;20453;-69
2023/07/17 06:15:10;;;;;;;8.27;3.33;;;29.60;84.20;;;;;;5015668;28;20419;-68
2023/07/17 06:17:38;;;;;;;8.32;3.10;;;29.60;84.20;;;;;;5017855;28;20428;-69
2023/07/17 06:20:12;;;;;;;8.70;3.38;;;29.60;82.90;;;;;;5016707;28;20419;-68
2023/07/17 06:22:38;;;;;;;8.02;3.30;;;29.90;83.70;;;;;;5016907;28;20423;-69
2023/07/17 06:25:05;;;;;;;9.07;3.20;;;30.20;82.20;;;;;;5031815;28;20463;-68
2023/07/17 06:27:32;;;;;;;11.83;3.53;;;30.20;82.70;;;;;;4998095;28;20926;-68
2023/07/17 06:29:58;;;;;;;8.15;3.60;;;30.30;82.50;;;;;;5015977;28;20958;-68
2023/07/17 06:32:24;;;;;;;21.83;3.75;;;30.40;81.40;;;;;;5016461;28;20444;-68
2023/07/17 06:34:51;;;;;;;13.10;3.55;;;30.40;82.30;;;;;;5017289;28;20415;-68
2023/07/17 06:37:17;;;;;;;8.43;3.20;;;30.70;81.50;;;;;;5018438;28;20419;-68
2023/07/17 06:39:43;;;;;;;7.10;3.05;;;30.80;81.40;;;;;;5020968;28;20433;-68
2023/07/17 06:42:10;;;;;;;13.50;3.88;;;30.70;81.20;;;;;;5002070;28;20439;-68
2023/07/17 06:44:36;;;;;;;8.00;3.10;;;30.90;79.70;;;;;;5031309;28;20420;-69
2023/07/17 06:47:03;;;;;;;9.65;3.15;;;30.90;78.60;;;;;;5015243;28;20426;-69
2023/07/17 06:49:29;;;;;;;12.77;3.40;;;31.00;77.60;;;;;;5018080;28;20412;-69
2023/07/17 06:51:55;;;;;;;4.68;2.90;;;31.10;77.10;;;;;;5017207;28;20426;-68
2023/07/17 06:54:22;;;;;;;54.38;6.15;;;31.00;76.60;;;;;;5014921;28;20469;-68
2023/07/17 06:56:48;;;;;;;20.60;3.88;;;31.20;75.30;;;;;;5011038;28;20416;-69
2023/07/17 06:59:15;;;;;;;12.10;3.17;;;31.20;75.60;;;;;;5014665;28;20527;-69
2023/07/17 07:01:42;;;;;;;16.37;3.50;;;31.30;77.10;;;;;;5018457;28;20449;-68
2023/07/17 07:04:08;;;;;;;10.17;3.33;;;31.30;77.00;;;;;;5015931;28;20798;-68
2023/07/17 07:06:34;;;;;;;28.10;4.63;;;31.50;76.00;;;;;;5015729;28;20771;-68
2023/07/17 07:09:02;;;;;;;4.33;2.60;;;31.60;77.00;;;;;;5016274;28;20411;-68
2023/07/17 07:11:28;;;;;;;8.23;3.10;;;31.60;76.10;;;;;;5009350;28;21122;-68
2023/07/17 07:13:54;;;;;;;7.45;3.05;;;31.70;76.70;;;;;;5015293;28;20422;-68
2023/07/17 07:16:21;;;;;;;9.93;3.38;;;31.80;74.70;;;;;;5017716;28;20540;-69
2023/07/17 07:18:47;;;;;;;8.43;3.13;;;31.90;76.20;;;;;;5017383;28;21198;-68
2023/07/17 07:21:14;;;;;;;5.90;3.00;;;32.00;75.30;;;;;;5000180;28;20419;-70
2023/07/17 07:23:40;;;;;;;7.88;3.35;;;32.10;75.10;;;;;;5015975;28;20452;-68
2023/07/17 07:26:06;;;;;;;9.70;3.30;;;32.20;75.70;;;;;;5015180;28;20420;-68
2023/07/17 07:28:32;;;;;;;9.30;3.40;;;32.40;75.80;;;;;;5018113;28;20502;-69
2023/07/17 07:31:00;;;;;;;11.18;3.50;;;32.60;79.50;;;;;;5015105;28;20423;-69
2023/07/17 07:33:26;;;;;;;5.90;3.45;;;32.70;79.80;;;;;;5020006;28;20419;-69
2023/07/17 07:35:53;;;;;;;10.98;3.50;;;32.70;80.70;;;;;;5015626;28;20553;-69
2023/07/17 07:38:19;;;;;;;7.93;3.50;;;32.80;81.50;;;;;;5020966;28;20496;-68
2023/07/17 07:40:45;;;;;;;7.80;3.38;;;32.90;80.40;;;;;;5012802;28;20424;-69
2023/07/17 07:43:12;;;;;;;7.80;3.22;;;33.00;79.80;;;;;;5020582;28;20431;-70
2023/07/17 07:45:38;;;;;;;11.82;3.25;;;33.10;78.90;;;;;;5013540;28;20413;-70
2023/07/17 07:48:05;;;;;;;8.18;3.10;;;33.20;78.60;;;;;;5018662;28;20418;-70
2023/07/17 07:50:31;;;;;;;4.53;3.00;;;33.30;77.60;;;;;;5003214;28;20468;-70
2023/07/17 07:52:57;;;;;;;6.73;3.07;;;33.40;76.40;;;;;;5013468;28;20425;-70
2023/07/17 07:55:24;;;;;;;7.55;3.20;;;33.50;76.70;;;;;;5034866;28;20419;-70
2023/07/17 07:57:51;;;;;;;8.13;3.07;;;33.60;76.40;;;;;;5018610;28;20427;-71
2023/07/17 08:00:18;;;;;;;7.20;3.20;;;33.70;75.00;;;;;;5016648;28;20422;-70
2023/07/17 08:02:44;;;;;;;7.65;3.00;;;33.80;74.60;;;;;;5020225;28;21230;-70
2023/07/17 08:05:11;;;;;;;5.30;3.00;;;33.80;76.60;;;;;;5017275;28;22327;-70
2023/07/17 08:07:38;;;;;;;4.75;3.00;;;33.90;76.80;;;;;;5017966;28;20794;-70
2023/07/17 08:10:04;;;;;;;4.80;3.00;;;34.00;76.70;;;;;;5027106;28;21206;-71
2023/07/17 08:12:31;;;;;;;5.50;2.70;;;34.10;76.60;;;;;;5014814;28;20453;-70
2023/07/17 08:14:57;;;;;;;5.43;2.70;;;34.20;75.80;;;;;;5016191;28;20479;-70
2023/07/17 08:17:23;;;;;;;5.80;3.20;;;34.30;72.20;;;;;;5016087;28;20417;-70
2023/07/17 08:19:50;;;;;;;7.20;3.00;;;34.40;73.10;;;;;;5011263;28;20450;-70
2023/07/17 08:22:16;;;;;;;5.30;2.97;;;34.40;74.20;;;;;;5014962;28;20561;-70
2023/07/17 08:24:42;;;;;;;10.07;2.70;;;34.50;74.50;;;;;;5018157;28;20921;-70
2023/07/17 08:27:09;;;;;;;7.63;2.60;;;34.60;73.90;;;;;;5017728;28;20524;-70
2023/07/17 08:29:35;;;;;;;8.45;2.80;;;34.70;74.30;;;;;;5013574;28;20920;-70
2023/07/17 08:32:02;;;;;;;9.32;2.83;;;34.80;73.80;;;;;;4997531;28;20432;-70
2023/07/17 08:34:28;;;;;;;6.70;2.70;;;34.90;71.80;;;;;;5014177;28;21013;-71
2023/07/17 08:36:54;;;;;;;11.05;2.90;;;35.00;72.90;;;;;;5014794;28;20450;-70
2023/07/17 08:39:20;;;;;;;5.38;2.55;;;35.00;74.10;;;;;;5016745;28;20885;-70
2023/07/17 08:41:47;;;;;;;5.55;2.60;;;35.00;73.70;;;;;;5015175;28;20407;-70
2023/07/17 08:44:17;;;;;;;7.30;2.70;;;35.00;73.00;;;;;;5015372;28;21127;-71
2023/07/17 08:46:46;;;;;;;5.70;2.65;;;35.10;73.90;;;;;;5013016;28;20430;-71
2023/07/17 08:49:18;;;;;;;7.53;2.65;;;35.20;74.70;;;;;;5016066;28;20425;-70
2023/07/17 08:51:49;;;;;;;7.63;2.60;;;35.40;73.60;;;;;;5002685;28;20407;-70
2023/07/17 08:54:16;;;;;;;7.20;2.70;;;35.40;73.00;;;;;;5017233;28;20496;-70
2023/07/17 08:56:44;;;;;;;6.18;2.90;;;35.60;74.40;;;;;;5017651;28;20430;-70
2023/07/17 08:59:11;;;;;;;7.57;2.78;;;35.70;73.30;;;;;;5022687;28;20485;-70
2023/07/17 09:01:39;;;;;;;7.07;2.85;;;35.80;74.00;;;;;;5017986;28;20414;-70
2023/07/17 09:04:06;;;;;;;4.88;2.70;;;35.90;72.00;;;;;;5020395;28;20422;-70
2023/07/17 09:06:33;;;;;;;7.47;2.80;;;36.00;73.50;;;;;;5016525;28;21120;-70
2023/07/17 09:09:00;;;;;;;7.60;2.78;;;36.10;72.30;;;;;;5020257;28;20421;-71
2023/07/17 09:11:26;;;;;;;4.47;2.80;;;36.20;72.70;;;;;;5016114;28;20406;-71
2023/07/17 09:13:52;;;;;;;4.60;2.80;;;36.00;71.20;;;;;;5017915;28;20532;-70
2023/07/17 09:16:24;;;;;;;3.90;2.55;;;36.00;72.50;;;;;;5021813;28;20417;-70
2023/07/17 09:18:54;;;;;;;6.28;2.83;;;36.30;72.50;;;;;;5019921;28;20426;-71
2023/07/17 09:21:24;;;;;;;9.57;2.97;;;36.30;72.30;;;;;;5021218;28;20481;-70
2023/07/17 09:23:54;;;;;;;8.85;2.90;;;36.40;73.00;;;;;;5021073;28;20429;-70
2023/07/17 09:26:23;;;;;;;4.53;2.50;;;36.50;72.50;;;;;;5017366;28;20426;-70
2023/07/17 09:28:56;;;;;;;9.40;2.63;;;36.70;71.20;;;;;;5015646;28;20415;-70
2023/07/17 09:31:31;;;;;;;4.07;2.58;;;36.60;69.80;;;;;;5013755;28;20422;-70
2023/07/17 09:34:00;;;;;;;6.35;2.50;;;36.80;70.10;;;;;;5029374;28;21051;-70
2023/07/17 09:36:27;;;;;;;5.60;2.55;;;37.00;70.50;;;;;;5014499;28;20509;-71
2023/07/17 09:38:57;;;;;;;5.05;2.72;;;37.20;70.90;;;;;;5031979;28;20969;-70
2023/07/17 09:41:26;;;;;;;5.30;2.60;;;37.20;70.90;;;;;;5001298;28;20403;-70
2023/07/17 09:44:07;;;;;;;9.88;3.15;;;37.30;69.90;;;;;;5016576;28;20434;-70
2023/07/17 09:46:36;;;;;;;5.72;2.88;;;37.30;68.90;;;;;;4990745;28;20767;-70
2023/07/17 09:49:04;;;;;;;8.98;2.63;;;37.30;70.30;;;;;;4997326;28;20534;-70
2023/07/17 09:51:32;;;;;;;6.60;2.63;;;37.30;69.10;;;;;;5020602;28;20470;-70
2023/07/17 09:53:59;;;;;;;6.63;2.73;;;37.30;69.90;;;;;;5018188;28;20431;-70
2023/07/17 09:56:31;;;;;;;7.80;2.77;;;37.30;69.10;;;;;;5015512;28;20425;-70
2023/07/17 10:49:49;;;;;;;11.53;3.13;;;36.90;65.40;;;;;;5091562;27;20389;-83
2023/07/17 10:52:17;;;;;;;8.02;2.78;;;36.70;66.10;;;;;;5052098;28;20496;-81
2023/07/17 10:54:44;;;;;;;9.63;2.60;;;36.70;66.80;;;;;;5034482;28;20416;-81
2023/07/17 10:57:17;;;;;;;7.43;2.70;;;36.80;67.40;;;;;;5051825;28;20451;-89
2023/07/17 10:59:43;;;;;;;9.45;2.67;;;36.70;67.50;;;;;;5036578;28;20457;-82
2023/07/17 11:02:16;;;;;;;10.23;3.10;;;36.70;66.80;;;;;;5052574;28;20496;-88
2023/07/17 11:04:44;;;;;;;9.05;2.90;;;36.60;66.80;;;;;;5036379;28;20429;-85
2023/07/17 11:07:11;;;;;;;6.18;2.65;;;36.60;67.30;;;;;;5057750;28;20507;-85
2023/07/17 11:09:52;;;;;;;8.70;2.80;;;36.60;67.50;;;;;;5054178;28;20411;-84
2023/07/17 11:12:44;;;;;;;8.02;2.70;;;36.50;67.90;;;;;;5059499;28;20417;-82
2023/07/17 11:15:16;;;;;;;7.15;2.60;;;36.40;67.10;;;;;;5040495;28;20446;-83
2023/07/17 11:17:46;;;;;;;10.63;2.97;;;36.50;66.80;;;;;;5034911;28;20453;-91
2023/07/17 11:20:12;;;;;;;9.10;2.97;;;36.40;67.00;;;;;;5057648;28;20575;-87
2023/07/17 11:22:43;;;;;;;6.85;2.60;;;36.30;66.40;;;;;;5062423;28;20413;-86
2023/07/17 11:25:11;;;;;;;5.90;2.58;;;36.20;66.80;;;;;;5021399;28;20479;-81
2023/07/17 11:27:40;;;;;;;4.82;2.47;;;36.30;66.20;;;;;;5044917;28;20911;-89
2023/07/17 11:30:28;;;;;;;4.43;2.63;;;36.30;65.70;;;;;;5044674;28;20464;-85
2023/07/17 11:33:09;;;;;;;6.80;2.33;;;36.20;63.90;;;;;;5039266;28;20438;-83
2023/07/17 11:35:49;;;;;;;6.05;2.50;;;36.20;62.50;;;;;;5053670;28;20413;-84
2023/07/17 11:38:19;;;;;;;6.38;2.20;;;36.20;62.70;;;;;;5040750;28;20831;-84
2023/07/17 11:40:55;;;;;;;4.88;2.40;;;36.10;61.20;;;;;;5066736;28;21015;-86
2023/07/17 11:43:35;;;;;;;4.55;2.05;;;36.20;61.30;;;;;;5066884;28;20423;-85
2023/07/17 11:46:11;;;;;;;3.70;2.13;;;36.20;60.40;;;;;;5061456;28;20417;-85
2023/07/17 11:48:46;;;;;;;5.25;2.10;;;36.10;61.70;;;;;;5059875;28;20461;-87
2023/07/17 11:51:24;;;;;;;5.85;2.65;;;36.00;61.80;;;;;;5037828;28;20413;-84
2023/07/17 11:53:57;;;;;;;3.13;2.20;;;36.10;62.20;;;;;;5037723;28;20409;-83
2023/07/17 11:56:43;;;;;;;4.78;2.50;;;36.10;61.00;;;;;;5064657;28;20430;-85
2023/07/17 11:59:26;;;;;;;6.05;2.40;;;36.10;61.90;;;;;;5034062;28;20441;-87
2023/07/17 12:01:54;;;;;;;5.40;2.38;;;36.10;60.70;;;;;;5045348;28;20484;-85
2023/07/17 12:04:32;;;;;;;2.75;1.88;;;36.10;59.20;;;;;;5024078;28;20419;-83
2023/07/17 12:07:01;;;;;;;4.80;1.83;;;36.10;55.90;;;;;;5047002;28;20697;-85
2023/07/17 12:09:29;;;;;;;5.60;2.10;;;36.00;56.50;;;;;;5046952;28;20449;-83
2023/07/17 12:11:58;;;;;;;3.72;1.98;;;36.00;58.20;;;;;;5023944;28;20447;-81
2023/07/17 12:14:26;;;;;;;6.20;2.30;;;36.10;57.40;;;;;;5034134;28;20409;-80
2023/07/17 12:16:52;;;;;;;2.75;1.80;;;35.90;57.40;;;;;;5038285;28;20409;-81
2023/07/17 12:19:20;;;;;;;4.65;1.92;;;36.00;57.00;;;;;;5043040;28;20873;-85
2023/07/17 12:22:00;;;;;;;3.60;1.80;;;36.10;56.50;;;;;;5046957;28;20485;-85
2023/07/17 12:24:28;;;;;;;2.78;1.80;;;36.10;56.30;;;;;;5040401;28;20403;-84
2023/07/17 12:26:54;;;;;;;3.03;1.70;;;36.10;56.50;;;;;;5039110;28;20506;-88
2023/07/17 12:29:22;;;;;;;4.70;1.90;;;36.10;57.00;;;;;;5029653;28;20451;-89
2023/07/17 12:31:59;;;;;;;2.80;1.85;;;36.00;57.80;;;;;;5046161;28;20895;-86
2023/07/17 12:34:26;;;;;;;5.30;2.00;;;35.80;56.70;;;;;;5054300;28;20405;-83
2023/07/17 12:36:57;;;;;;;4.25;1.90;;;35.90;55.60;;;;;;5029250;28;20438;-86
2023/07/17 12:39:26;;;;;;;6.05;1.92;;;36.10;54.30;;;;;;5023568;28;20446;-88
2023/07/17 12:41:58;;;;;;;4.43;1.75;;;36.10;54.20;;;;;;5039817;28;20413;-86
2023/07/17 12:44:29;;;;;;;4.50;1.60;;;36.20;53.20;;;;;;5045279;28;20916;-84
2023/07/17 12:46:55;;;;;;;3.80;1.80;;;36.10;53.70;;;;;;5024764;28;20424;-86
2023/07/17 12:49:21;;;;;;;3.73;1.93;;;36.20;56.20;;;;;;5027708;28;20400;-83
2023/07/17 12:51:48;;;;;;;5.23;1.83;;;36.20;54.30;;;;;;5028416;28;20391;-82
2023/07/17 12:54:14;;;;;;;3.60;1.90;;;36.20;55.50;;;;;;5035121;28;20462;-87
2023/07/17 12:56:45;;;;;;;3.30;1.75;;;36.30;53.70;;;;;;5031340;28;20447;-87
2023/07/17 12:59:11;;;;;;;4.72;1.98;;;36.20;54.00;;;;;;5042541;28;20471;-86
2023/07/17 13:01:39;;;;;;;2.35;1.70;;;36.10;55.00;;;;;;5042334;28;20415;-86
2023/07/17 13:04:11;;;;;;;3.95;1.70;;;36.20;53.60;;;;;;5033316;28;20493;-84
2023/07/17 13:06:40;;;;;;;5.38;1.88;;;36.20;54.60;;;;;;5038453;28;20421;-82
2023/07/17 13:09:15;;;;;;;4.65;1.98;;;36.20;53.60;;;;;;5010803;28;20417;-83
2023/07/17 13:12:03;;;;;;;4.65;2.30;;;36.20;53.00;;;;;;5038676;28;20414;-83
2023/07/17 13:14:31;;;;;;;1.98;1.77;;;36.20;53.70;;;;;;5032591;28;20487;-86
2023/07/17 13:16:59;;;;;;;4.75;1.80;;;36.20;51.80;;;;;;5030159;28;20441;-85
2023/07/17 13:19:45;;;;;;;3.40;1.77;;;36.10;52.60;;;;;;5036672;28;20480;-85
2023/07/17 13:22:14;;;;;;;4.75;1.92;;;36.10;52.00;;;;;;5027604;28;20465;-83
2023/07/17 13:24:43;;;;;;;2.83;1.70;;;36.10;52.00;;;;;;5036825;28;20417;-84
2023/07/17 13:27:10;;;;;;;3.55;1.90;;;36.10;51.60;;;;;;5047837;28;20964;-83
2023/07/17 13:29:36;;;;;;;4.25;1.77;;;36.10;52.20;;;;;;5027725;28;20415;-80
2023/07/17 13:32:05;;;;;;;3.10;1.88;;;36.10;52.70;;;;;;5023164;28;20620;-85
2023/07/17 13:34:33;;;;;;;2.67;1.90;;;36.10;51.70;;;;;;5037663;28;20524;-83
2023/07/17 13:37:00;;;;;;;8.75;2.20;;;36.10;53.50;;;;;;5039428;28;20413;-87
2023/07/17 13:39:30;;;;;;;4.78;2.17;;;35.90;55.40;;;;;;5023527;28;20408;-86